Latest Coastal Weather Observations for Lombadina

IDW60701

Issued at 5:12 pm WST Monday 30 March 2015 (issued every 10 minutes, with the page automatically refreshed every 10 minutes)

About coastal observations | Map of coastal stations | Coastal observations for WA | Marine services | Other Formats
Station Details ID: 503016 Name: LOMBADINA AIRSTRIP Lat: -16.52 Lon: 122.92 Height: 42.0 m
Data from the previous 72 hours. | See also: Recent months for locations in Western Australia
Date/Time
WST
Temp

°C
Wind Pressure Rain
since 9am
mm
Weather Cloud Vis
km
Sea
Height
m
Swell
Dir
 
Speed
knots
Gust
knots
hPa Trend Height
m
Period
s
Dir
30/05:00pm 31.0 W 3 7 1011.3 - 0.0 - - 10 - - - -
30/04:30pm 31.3 W 4 9 1011.1 - 0.0 - - 10 - - - -
30/04:00pm 32.2 WNW 3 7 1010.9 - 0.0 - - 10 - - - -
30/03:30pm 32.2 WNW 4 7 1010.8 - 0.0 - - 10 - - - -
30/03:00pm 32.7 W 3 7 1010.8 - 0.0 - - 10 - - - -
30/02:30pm 32.6 WNW 5 10 1011.0 - 0.0 - - 10 - - - -
30/02:00pm 32.5 NW 5 8 1010.9 - 0.0 - - 10 - - - -
30/01:30pm 32.4 NW 5 9 1011.2 - 0.0 - - 10 - - - -
30/01:00pm 33.0 NW 5 10 1011.4 - 0.0 - - 10 - - - -
30/12:30pm 32.6 NW 6 10 1011.6 - 0.0 - - 10 - - - -
30/12:00pm 32.7 NW 4 9 1012.0 - 0.0 - - 10 - - - -
30/11:30am 33.1 WNW 2 7 1012.3 - 0.0 - - 10 - - - -
30/11:00am 31.9 NW 4 8 1012.7 - 0.0 - - 10 - - - -
30/10:34am 32.8 WNW 4 7 1013.1 - 0.0 - - 10 - - - -
30/10:30am 32.2 NW 4 7 1013.1 - 0.0 - - 10 - - - -
30/10:18am 32.2 NW 2 6 1013.2 - 0.0 - - 4 - - - -
30/10:00am 33.3 SW 2 5 1013.3 - 0.0 - - 10 - - - -
30/09:30am 31.9 SSW 2 4 1013.6 - 0.0 - - 10 - - - -
30/09:00am 32.7 CALM 0 1 1013.6 - 0.2 - - 10 - - - -
30/08:30am 31.3 ENE 1 3 1013.5 - 0.2 - - 10 - - - -
30/08:00am 29.7 SE 2 4 1013.6 - 0.2 - - 10 - - - -
30/07:30am 29.1 SE 1 4 1013.4 - 0.2 - - 10 - - - -
30/07:00am 28.0 CALM 0 2 1013.0 - 0.2 - - 10 - - - -
30/06:30am 25.6 CALM 0 0 1012.8 - 0.2 - - 10 - - - -
30/06:00am 24.5 SE 1 3 1012.4 - 0.2 - - 10 - - - -
30/05:30am 24.8 SE 1 3 1011.9 - 0.2 - - 10 - - - -
30/05:00am 24.2 SSE 1 3 1011.7 - 0.2 - - 10 - - - -
30/04:30am 24.6 CALM 0 2 1011.3 - 0.2 - - 10 - - - -
30/04:00am 25.3 S 1 2 1011.4 - 0.2 - - 10 - - - -
30/03:30am 25.6 SSW 2 4 1011.4 - 0.2 - - 10 - - - -
30/03:00am 25.8 SSW 2 4 1011.5 - 0.2 - - 10 - - - -
30/02:30am 25.8 SW 1 2 1011.5 - 0.2 - Partly cloudy 10 - - - -
30/02:00am 25.9 SW 1 3 1011.5 - 0.2 - - 10 - - - -
30/01:30am 25.9 CALM 0 2 1011.7 - 0.2 - Partly cloudy 10 - - - -
30/01:00am 26.1 SW 1 2 1011.8 - 0.2 - - 10 - - - -
30/12:30am 25.9 CALM 0 2 1012.0 - 0.2 - - 10 - - - -
30/12:00am 26.1 CALM 0 3 1012.3 - 0.2 - - 10 - - - -
 
Date/Time
WST
Temp

°C
Wind Pressure Rain
since 9am
mm
Weather Cloud Vis
km
Sea
Height
m
Swell
Dir
 
Speed
knots
Gust
knots
hPa Trend Height
m
Period
s
Dir
29/11:30pm 26.0 SSW 1 4 1012.7 - 0.2 - - 10 - - - -
29/11:00pm 25.9 SW 1 3 1013.0 - 0.2 - - 10 - - - -
29/10:30pm 26.0 CALM 0 3 1013.0 - 0.2 - - 10 - - - -
29/10:00pm 26.0 WSW 1 3 1013.3 - 0.2 - Partly cloudy 10 - - - -
29/09:30pm 26.3 CALM 0 1 1013.4 - 0.2 - Partly cloudy 10 - - - -
29/09:00pm 26.7 CALM 0 1 1013.2 - 0.2 - Partly cloudy 10 - - - -
29/08:30pm 26.9 SSE 1 3 1013.0 - 0.2 - Cloudy 10 - - - -
29/08:00pm 27.0 SSE 1 3 1012.7 - 0.2 - Cloudy 10 - - - -
29/07:30pm 26.9 SE 3 4 1012.4 - 0.2 - - 10 - - - -
29/07:00pm 26.9 SE 3 5 1012.0 - 0.2 - - 10 - - - -
29/06:30pm 26.7 SE 2 4 1011.8 - 0.2 - - 10 - - - -
29/06:00pm 27.0 SE 2 4 1011.6 - 0.2 - - 10 - - - -
29/05:30pm 27.5 SSE 1 3 1011.7 - 0.2 - - 10 - - - -
29/05:00pm 27.9 CALM 0 0 1011.6 - 0.2 - - 10 - - - -
29/04:30pm 28.1 CALM 0 0 1011.5 - 0.2 - Partly cloudy 10 - - - -
29/04:00pm 27.7 NNW 1 3 1011.6 - 0.2 - - 10 - - - -
29/03:30pm 27.7 N 6 9 1011.9 - 0.2 - Partly cloudy 10 - - - -
29/03:00pm 28.2 NNE 7 15 1011.8 - 0.2 - Cloudy 10 - - - -
29/02:30pm 30.3 ENE 6 10 1011.4 - 0.2 - Partly cloudy 10 - - - -
29/02:00pm 29.8 NE 5 10 1011.7 - 0.2 - Cloudy 10 - - - -
29/01:30pm 30.2 ENE 6 11 1011.7 - 0.2 - Partly cloudy 10 - - - -
29/01:00pm 30.1 ENE 6 11 1011.7 - 0.2 - Partly cloudy 10 - - - -
29/12:30pm 30.7 NE 7 13 1011.9 - 0.2 - Partly cloudy 10 - - - -
29/12:00pm 30.7 NE 7 11 1012.2 - 0.2 - Cloudy 10 - - - -
29/11:30am 30.5 NE 6 10 1012.5 - 0.2 - Partly cloudy 10 - - - -
29/11:00am 29.9 NNE 6 12 1012.9 - 0.2 - Partly cloudy 10 - - - -
29/10:30am 29.6 NE 5 8 1013.4 - 0.2 - Partly cloudy 10 - - - -
29/10:00am 29.3 NE 3 8 1013.7 - 0.2 - - 10 - - - -
29/09:30am 28.8 NE 2 4 1013.7 - 0.0 - - 10 - - - -
29/09:00am 28.4 NE 2 5 1013.6 - 35.4 - - 10 - - - -
29/08:30am 28.2 NE 3 6 1013.5 - 35.4 - - 10 - - - -
29/08:00am 27.7 ENE 3 5 1013.2 - 35.4 - Partly cloudy 10 - - - -
29/07:30am 27.7 E 4 6 1012.7 - 35.4 - Partly cloudy 10 - - - -
29/07:00am 27.4 ENE 5 9 1012.1 - 35.4 - - 10 - - - -
29/06:30am 27.3 E 5 9 1011.6 - 35.4 - - 10 - - - -
29/06:00am 26.9 E 4 7 1011.1 - 35.4 - - 10 - - - -
29/05:30am 26.9 E 4 7 1011.0 - 35.4 - - 10 - - - -
29/05:00am 26.7 E 4 10 1010.9 - 35.4 - - 10 - - - -
29/04:30am 26.6 ESE 5 8 1010.9 - 35.4 - Partly cloudy 10 - - - -
29/04:00am 26.6 ESE 4 7 1010.6 - 35.4 - Partly cloudy 10 - - - -
29/03:30am 26.5 ESE 3 7 1010.5 - 35.4 - Partly cloudy 10 - - - -
29/03:00am 26.6 E 3 7 1010.6 - 35.4 - Cloudy 10 - - - -
29/02:30am 26.5 E 3 7 1010.5 - 35.4 - Partly cloudy 10 - - - -
29/02:00am 26.1 ESE 3 6 1010.6 - 35.4 - - 10 - - - -
29/01:30am 26.2 E 3 5 1010.9 - 35.4 - - 10 - - - -
29/01:00am 25.9 SE 2 5 1011.0 - 35.4 - Partly cloudy 10 - - - -
29/12:30am 26.4 ESE 4 8 1011.5 - 35.4 - Partly cloudy 10 - - - -
29/12:00am 26.1 E 5 10 1012.0 - 35.4 - Cloudy 10 - - - -
 
Date/Time
WST
Temp

°C
Wind Pressure Rain
since 9am
mm
Weather Cloud Vis
km
Sea
Height
m
Swell
Dir
 
Speed
knots
Gust
knots
hPa Trend Height
m
Period
s
Dir
28/11:30pm 26.0 E 4 8 1012.2 - 35.4 - Partly cloudy 10 - - - -
28/11:00pm 25.6 ESE 4 7 1012.2 - 35.4 - Partly cloudy 10 - - - -
28/10:30pm 24.9 ESE 4 8 1012.4 - 33.6 - Partly cloudy 10 - - - -
28/10:24pm 24.9 ESE 5 8 1012.5 - 33.6 - Partly cloudy 6 - - - -
28/10:05pm 24.6 ENE 7 19 1012.8 - 30.8 - Partly cloudy 4 - - - -
28/10:00pm 26.1 E 4 9 1012.7 - 28.2 - Partly cloudy 10 - - - -
28/09:30pm 27.7 E 8 18 1012.8 - 27.8 - Partly cloudy 10 - - - -
28/09:00pm 27.8 ENE 9 15 1012.6 - 27.8 - Cloudy 10 - - - -
28/08:30pm 26.8 E 8 17 1012.5 - 27.8 - Partly cloudy 10 - - - -
28/08:00pm 27.3 ENE 8 16 1012.0 - 27.8 - Partly cloudy 10 - - - -
28/07:30pm 26.5 E 7 14 1011.7 - 27.8 - Partly cloudy 10 - - - -
28/07:00pm 27.7 ENE 6 14 1011.3 - 27.2 - Partly cloudy 10 - - - -
28/06:30pm 27.4 ENE 9 17 1010.4 - 27.2 - Partly cloudy 10 - - - -
28/06:00pm 26.7 NE 7 14 1010.0 - 27.2 - Cloudy 10 - - - -
28/05:30pm 26.4 NE 7 13 1009.5 - 27.2 - Partly cloudy 10 - - - -
28/05:00pm 25.3 NE 7 15 1009.7 - 27.2 - Partly cloudy 8 - - - -
28/04:30pm 25.6 NE 4 9 1009.5 - 26.2 - Partly cloudy 10 - - - -
28/04:07pm 25.1 ENE 8 17 1009.6 - 26.2 - Partly cloudy 10 - - - -
28/04:00pm 25.1 NE 10 17 1009.6 - 26.2 - Partly cloudy 8 - - - -
28/03:50pm 25.4 E 5 12 1009.5 - 26.0 - Partly cloudy 4 - - - -
28/03:37pm 25.3 E 5 10 1009.1 - 24.2 - Partly cloudy 9 - - - -
28/03:30pm 24.9 ESE 7 14 1009.3 - 24.2 - Partly cloudy 9 - - - -
28/03:15pm 24.6 ESE 4 10 1009.5 - 24.0 - Partly cloudy 9 - - - -
28/03:12pm 24.5 ESE 4 10 1009.5 - 24.0 - Partly cloudy 9 - - - -
28/03:00pm 24.1 ENE 5 9 1009.2 - 23.6 Rain Mostly cloudy 3 - - - -
28/02:50pm 23.8 ENE 11 21 1009.5 - 21.4 - Partly cloudy 2 - - - -
28/02:40pm 23.5 ENE 15 25 1009.6 - 16.6 - Partly cloudy 2 - - - -
28/02:30pm 24.5 ENE 8 17 1009.9 - 10.4 - Partly cloudy 4 - - - -
28/02:29pm 24.6 ENE 8 17 1009.8 - 9.6 - Partly cloudy 4 - - - -
28/02:15pm 25.1 ENE 9 19 1009.8 - 7.4 - Partly cloudy 9 - - - -
28/02:00pm 25.5 E 10 18 1009.6 - 6.8 - Partly cloudy 8 - - - -
28/01:30pm 26.1 ENE 7 14 1009.9 - 6.4 - Partly cloudy 9 - - - -
28/01:25pm 25.8 ENE 7 11 1010.0 - 6.4 - Partly cloudy 8 - - - -
28/01:00pm 24.8 ENE 10 23 1010.4 - 5.0 - Partly cloudy 3 - - - -
28/12:54pm 25.7 NE 8 15 1010.6 - 3.2 - Partly cloudy 4 - - - -
28/12:43pm 26.4 NE 7 12 1010.4 - 2.6 - Partly cloudy 5 - - - -
28/12:30pm 25.9 NE 10 19 1010.6 - 2.0 - Partly cloudy 3 - - - -
28/12:24pm 25.5 NE 11 19 1010.7 - 1.6 - Partly cloudy 4 - - - -
28/12:00pm 29.4 E 10 19 1010.8 - 0.2 Recent precip. Cloudy 10 - - - -
28/11:30am 30.4 E 10 18 1011.2 - 0.0 - Partly cloudy 10 - - - -
28/11:00am 30.5 E 13 24 1011.5 - 0.0 - Partly cloudy 10 - - - -
28/10:30am 30.4 E 10 20 1012.1 - 0.0 - Cloudy 10 - - - -
28/10:00am 29.5 E 9 15 1012.1 - 0.0 - Partly cloudy 10 - - - -
28/09:30am 29.8 E 8 16 1012.0 - 0.0 - Partly cloudy 10 - - - -
28/09:00am 30.0 E 8 14 1011.9 - 12.2 - Mostly clear 10 - - - -
28/08:30am 29.3 ESE 7 13 1012.2 - 12.2 - Cloudy 10 - - - -
28/08:00am 29.3 E 8 14 1011.8 - 12.2 - Partly cloudy 10 - - - -
28/07:30am 28.9 E 6 10 1011.5 - 12.2 - Partly cloudy 10 - - - -
28/07:00am 28.1 ESE 4 7 1011.5 - 12.2 - Partly cloudy 10 - - - -
28/06:30am 27.3 SE 2 5 1011.1 - 12.2 - Partly cloudy 10 - - - -
28/06:00am 26.8 ESE 2 5 1010.6 - 12.2 - - 10 - - - -
28/05:30am 25.7 ESE 1 3 1010.2 - 12.2 - - 10 - - - -
28/05:00am 26.7 E 2 4 1010.2 - 12.2 - - 10 - - - -
28/04:30am 26.8 ENE 3 5 1010.2 - 12.2 - Partly cloudy 10 - - - -
28/04:00am 26.7 ENE 3 5 1010.2 - 12.2 - Partly cloudy 10 - - - -
28/03:30am 26.9 E 2 4 1010.1 - 12.2 - - 10 - - - -
28/03:00am 26.9 ENE 3 5 1010.1 - 12.2 - - 10 - - - -
28/02:30am 27.0 ENE 3 6 1010.2 - 12.2 - Partly cloudy 10 - - - -
28/02:00am 26.6 ENE 1 4 1010.5 - 12.2 - Partly cloudy 10 - - - -
28/01:30am 26.0 CALM 0 0 1010.4 - 12.2 - Partly cloudy 10 - - - -
28/01:00am 25.9 CALM 0 1 1010.7 - 12.2 - Partly cloudy 10 - - - -
28/12:59am 25.8 CALM 0 1 1010.7 - 12.2 - Partly cloudy 10 - - - -
28/12:30am 25.8 ESE 4 12 1011.4 - 8.0 - Partly cloudy 0.9 - - - -
28/12:25am 25.9 SSE 3 12 1011.4 - 3.4 - Partly cloudy 3 - - - -
28/12:00am 27.2 CALM 0 0 1011.3 - 0.0 - Partly cloudy 10 - - - -
 
Date/Time
WST
Temp

°C
Wind Pressure Rain
since 9am
mm
Weather Cloud Vis
km
Sea
Height
m
Swell
Dir
 
Speed
knots
Gust
knots
hPa Trend Height
m
Period
s
Dir
27/11:30pm 28.0 CALM 0 4 1011.6 - 0.0 - Partly cloudy 10 - - - -
27/11:00pm 28.4 CALM 0 2 1011.8 - 0.0 - Partly cloudy 10 - - - -
27/10:30pm 28.8 NE 1 3 1012.0 - 0.0 - Partly cloudy 10 - - - -
27/10:00pm 28.5 NNE 1 3 1012.1 - 0.0 - Partly cloudy 10 - - - -
27/09:30pm 28.4 NNE 1 2 1012.0 - 0.0 - Partly cloudy 10 - - - -
27/09:00pm 28.2 NE 2 4 1011.8 - 0.0 - Partly cloudy 10 - - - -
27/08:30pm 28.3 NNE 2 4 1011.4 - 0.0 - - 10 - - - -
27/08:00pm 28.0 NNE 2 3 1011.2 - 0.0 - - 10 - - - -
27/07:30pm 28.3 NNE 1 3 1010.8 - 0.0 - - 10 - - - -
27/07:00pm 28.7 NE 2 3 1010.6 - 0.0 - - 10 - - - -
27/06:30pm 29.2 ENE 1 3 1010.3 - 0.0 - - 10 - - - -
27/06:00pm 29.7 ENE 2 3 1010.0 - 0.0 - - 10 - - - -
27/05:30pm 30.5 ENE 3 4 1009.6 - 0.0 - Partly cloudy 10 - - - -

Other Formats:

Comma delimited format used in spreadsheet applications
http://www.bom.gov.au/fwo/IDW60701/IDW60701.99206.axf

JavaScript Object Notation format (JSON) in row-major order
http://www.bom.gov.au/fwo/IDW60701/IDW60701.99206.json